createdAt,value
2022-09-23T00:00:21.902Z,5.25
2022-09-23T00:01:22.002Z,5.21
2022-09-23T00:02:21.952Z,5.20
2022-09-23T00:03:21.859Z,5.20
2022-09-23T00:04:21.847Z,5.17
2022-09-23T00:05:21.833Z,5.11
2022-09-23T00:06:21.816Z,5.14
2022-09-23T00:07:21.804Z,5.17
2022-09-23T00:08:21.794Z,5.17
2022-09-23T00:09:21.777Z,5.17
2022-09-23T00:10:21.767Z,5.17
2022-09-23T00:11:21.753Z,5.15
2022-09-23T00:12:21.739Z,5.14
2022-09-23T00:13:21.727Z,5.11
2022-09-23T00:14:21.768Z,5.11
2022-09-23T00:15:21.702Z,5.12
2022-09-23T00:16:21.768Z,5.14
2022-09-23T00:17:21.676Z,5.17
2022-09-23T00:18:21.661Z,5.15
2022-09-23T00:19:21.651Z,5.10
2022-09-23T00:20:21.641Z,5.11
2022-09-23T00:21:21.622Z,5.07
2022-09-23T00:22:21.611Z,5.05
2022-09-23T00:23:21.593Z,5.05
2022-09-23T00:24:21.583Z,5.05
2022-09-23T00:25:21.569Z,5.07
2022-09-23T00:26:21.556Z,5.10
2022-09-23T00:27:21.543Z,5.10
2022-09-23T00:28:21.530Z,5.10
2022-09-23T00:29:21.517Z,5.08
2022-09-23T00:30:21.525Z,5.05
2022-09-23T00:31:21.637Z,4.99
2022-09-23T00:32:21.477Z,4.97
2022-09-23T00:33:21.465Z,4.97
2022-09-23T00:34:21.452Z,4.96
2022-09-23T00:35:21.639Z,4.97
2022-09-23T00:36:21.436Z,5.00
2022-09-23T00:37:21.414Z,4.96
2022-09-23T00:38:21.398Z,4.96
2022-09-23T00:39:21.396Z,4.99
2022-09-23T00:40:21.456Z,4.99
2022-09-23T00:41:21.380Z,5.00
2022-09-23T00:42:21.349Z,5.02
2022-09-23T00:43:21.334Z,5.00
2022-09-23T00:44:21.322Z,4.97
2022-09-23T00:45:21.306Z,4.94
2022-09-23T00:46:21.443Z,4.96
2022-09-23T00:47:21.283Z,4.93
2022-09-23T00:48:21.267Z,4.90
2022-09-23T00:49:21.257Z,4.89
2022-09-23T00:50:21.240Z,4.87
2022-09-23T00:51:21.228Z,4.86
2022-09-23T00:52:21.216Z,4.84
2022-09-23T00:53:21.200Z,4.87
2022-09-23T00:54:21.186Z,4.87
2022-09-23T00:55:21.175Z,4.90
2022-09-23T00:56:21.165Z,4.90
2022-09-23T00:57:21.148Z,4.84
2022-09-23T00:58:21.137Z,4.82
2022-09-23T00:59:21.122Z,4.86
2022-09-23T01:00:21.111Z,4.84
2022-09-23T01:01:21.129Z,4.87
2022-09-23T01:02:21.255Z,4.89
2022-09-23T01:03:21.068Z,4.89
2022-09-23T01:04:21.057Z,4.89
2022-09-23T01:05:21.053Z,4.92
2022-09-23T01:06:21.034Z,4.92
2022-09-23T01:07:21.023Z,4.89
2022-09-23T01:08:21.003Z,4.87
2022-09-23T01:09:20.991Z,4.84
2022-09-23T01:10:20.983Z,4.82
2022-09-23T01:11:20.962Z,4.82
2022-09-23T01:12:20.950Z,4.84
2022-09-23T01:13:20.937Z,4.78
2022-09-23T01:14:20.927Z,4.78
2022-09-23T01:15:20.912Z,4.77
2022-09-23T01:16:20.961Z,4.74
2022-09-23T01:17:20.889Z,4.73
2022-09-23T01:18:20.900Z,4.70
2022-09-23T01:19:20.858Z,4.66
2022-09-23T01:20:20.856Z,4.62
2022-09-23T01:21:20.839Z,4.60
2022-09-23T01:22:20.820Z,4.60
2022-09-23T01:23:20.807Z,4.59
2022-09-23T01:24:20.798Z,4.58
2022-09-23T01:25:20.781Z,4.53
2022-09-23T01:26:20.767Z,4.50
2022-09-23T01:27:20.755Z,4.44
2022-09-23T01:28:20.742Z,4.38
2022-09-23T01:29:20.727Z,4.37
2022-09-23T01:30:20.715Z,4.38
2022-09-23T01:31:20.738Z,4.41
2022-09-23T01:32:20.692Z,4.38
2022-09-23T01:33:20.677Z,4.38
2022-09-23T01:34:20.703Z,4.38
2022-09-23T01:35:20.648Z,4.41
2022-09-23T01:36:20.638Z,4.40
2022-09-23T01:37:20.623Z,4.41
2022-09-23T01:38:20.609Z,4.41
2022-09-23T01:39:20.600Z,4.40
2022-09-23T01:40:20.658Z,4.35
2022-09-23T01:41:20.571Z,4.30
2022-09-23T01:42:20.557Z,4.23
2022-09-23T01:43:20.548Z,4.26
2022-09-23T01:44:20.538Z,4.28
2022-09-23T01:45:20.518Z,4.24
2022-09-23T01:46:20.507Z,4.26
2022-09-23T01:47:20.493Z,4.28
2022-09-23T01:48:20.523Z,4.31
2022-09-23T01:49:20.466Z,4.31
2022-09-23T01:50:20.475Z,4.31
2022-09-23T01:51:20.442Z,4.34
2022-09-23T01:52:20.426Z,4.37
2022-09-23T01:53:20.414Z,4.38
2022-09-23T01:54:20.400Z,4.37
2022-09-23T01:55:20.392Z,4.40
2022-09-23T01:56:20.374Z,4.37
2022-09-23T01:57:20.360Z,4.34
2022-09-23T01:58:20.355Z,4.31
2022-09-23T01:59:20.343Z,4.31
2022-09-23T02:00:20.323Z,4.32
2022-09-23T02:01:20.397Z,4.32
2022-09-23T02:02:20.361Z,4.28
2022-09-23T02:03:20.285Z,4.26
2022-09-23T02:04:20.273Z,4.23
2022-09-23T02:05:20.254Z,4.17
2022-09-23T02:06:20.265Z,4.16
2022-09-23T02:07:20.238Z,4.14
2022-09-23T02:08:20.216Z,4.16
2022-09-23T02:09:20.202Z,4.20
2022-09-23T02:10:20.187Z,4.20
2022-09-23T02:11:20.176Z,4.16
2022-09-23T02:12:20.168Z,4.14
2022-09-23T02:13:20.151Z,4.12
2022-09-23T02:14:20.139Z,4.13
2022-09-23T02:15:20.126Z,4.12
2022-09-23T02:16:20.188Z,4.13
2022-09-23T02:17:20.101Z,4.12
2022-09-23T02:18:20.088Z,4.13
2022-09-23T02:19:20.078Z,4.14
2022-09-23T02:20:20.064Z,4.13
2022-09-23T02:21:20.052Z,4.08
2022-09-23T02:22:20.060Z,4.05
2022-09-23T02:23:20.025Z,4.05
2022-09-23T02:24:20.006Z,4.02
2022-09-23T02:25:19.994Z,4.01
2022-09-23T02:26:19.984Z,3.98
2022-09-23T02:27:19.983Z,3.92
2022-09-23T02:28:19.961Z,3.87
2022-09-23T02:29:19.947Z,3.91
2022-09-23T02:30:19.930Z,3.95
2022-09-23T02:31:20.114Z,3.98
2022-09-23T02:32:19.902Z,4.02
2022-09-23T02:33:19.891Z,4.02
2022-09-23T02:34:19.880Z,4.02
2022-09-23T02:35:19.863Z,3.99
2022-09-23T02:36:19.861Z,3.99
2022-09-23T02:37:19.844Z,4.01
2022-09-23T02:38:19.851Z,4.02
2022-09-23T02:39:19.814Z,4.06
2022-09-23T02:40:19.860Z,4.05
2022-09-23T02:41:19.794Z,4.10
2022-09-23T02:42:19.780Z,4.13
2022-09-23T02:43:19.769Z,4.16
2022-09-23T02:44:19.752Z,4.17
2022-09-23T02:45:19.736Z,4.19
2022-09-23T02:46:19.794Z,4.19
2022-09-23T02:47:19.715Z,4.16
2022-09-23T02:48:19.693Z,4.20
2022-09-23T02:49:19.682Z,4.17
2022-09-23T02:50:19.671Z,4.10
2022-09-23T02:51:19.657Z,4.04
2022-09-23T02:52:19.839Z,3.98
2022-09-23T02:53:19.634Z,3.96
2022-09-23T02:54:19.647Z,3.92
2022-09-23T02:55:19.602Z,3.98
2022-09-23T02:56:19.665Z,3.98
2022-09-23T02:57:19.577Z,3.96
2022-09-23T02:58:19.566Z,3.96
2022-09-23T02:59:19.556Z,3.96
2022-09-23T03:00:19.540Z,3.94
2022-09-23T03:01:19.625Z,3.91
2022-09-23T03:02:19.576Z,3.88
2022-09-23T03:03:19.499Z,3.91
2022-09-23T03:04:19.490Z,3.88
2022-09-23T03:05:19.480Z,3.91
2022-09-23T03:06:19.461Z,3.87
2022-09-23T03:07:19.455Z,3.88
2022-09-23T03:08:19.434Z,3.92
2022-09-23T03:09:19.426Z,3.92
2022-09-23T03:10:19.434Z,3.91
2022-09-23T03:11:19.396Z,3.94
2022-09-23T03:12:19.384Z,3.92
2022-09-23T03:13:19.371Z,3.88
2022-09-23T03:14:19.360Z,3.81
2022-09-23T03:15:19.348Z,3.76
2022-09-23T03:16:19.408Z,3.76
2022-09-23T03:17:19.320Z,3.70
2022-09-23T03:18:19.307Z,3.70
2022-09-23T03:19:19.298Z,3.70
2022-09-23T03:20:19.278Z,3.65
2022-09-23T03:21:19.269Z,3.59
2022-09-23T03:22:19.257Z,3.59
2022-09-23T03:23:19.240Z,3.63
2022-09-23T03:24:19.228Z,3.60
2022-09-23T03:25:19.211Z,3.56
2022-09-23T03:26:19.226Z,3.53
2022-09-23T03:27:19.189Z,3.48
2022-09-23T03:28:19.174Z,3.48
2022-09-23T03:29:19.161Z,3.48
2022-09-23T03:30:19.153Z,3.51
2022-09-23T03:31:19.276Z,3.51
2022-09-23T03:32:19.122Z,3.51
2022-09-23T03:33:19.107Z,3.50
2022-09-23T03:34:19.097Z,3.50
2022-09-23T03:35:19.087Z,3.55
2022-09-23T03:36:19.066Z,3.53
2022-09-23T03:37:19.057Z,3.53
2022-09-23T03:38:19.050Z,3.50
2022-09-23T03:39:19.040Z,3.48
2022-09-23T03:40:19.076Z,3.48
2022-09-23T03:41:19.008Z,3.48
2022-09-23T03:42:19.015Z,3.50
2022-09-23T03:43:18.979Z,3.50
2022-09-23T03:44:18.970Z,3.48
2022-09-23T03:45:18.959Z,3.50
2022-09-23T03:46:18.942Z,3.55
2022-09-23T03:47:18.935Z,3.55
2022-09-23T03:48:18.918Z,3.50
2022-09-23T03:49:18.902Z,3.48
2022-09-23T03:50:18.898Z,3.51
2022-09-23T03:51:18.883Z,3.53
2022-09-23T03:52:18.871Z,3.55
2022-09-23T03:53:18.866Z,3.56
2022-09-23T03:54:18.839Z,3.58
2022-09-23T03:55:18.828Z,3.59
2022-09-23T03:56:18.821Z,3.62
2022-09-23T03:57:18.803Z,3.63
2022-09-23T03:58:18.810Z,3.62
2022-09-23T03:59:18.779Z,3.60
2022-09-23T04:00:18.760Z,3.62
2022-09-23T04:01:18.763Z,3.63
2022-09-23T04:02:19.030Z,3.65
2022-09-23T04:03:18.720Z,3.63
2022-09-23T04:04:18.708Z,3.60
2022-09-23T04:05:18.694Z,3.56
2022-09-23T04:06:18.682Z,3.50
2022-09-23T04:07:18.668Z,3.50
2022-09-23T04:08:18.663Z,3.47
2022-09-23T04:09:18.645Z,3.48
2022-09-23T04:10:18.632Z,3.45
2022-09-23T04:11:18.621Z,3.47
2022-09-23T04:12:18.608Z,3.47
2022-09-23T04:13:18.593Z,3.51
2022-09-23T04:14:18.603Z,3.47
2022-09-23T04:15:18.568Z,3.44
2022-09-23T04:16:18.599Z,3.44
2022-09-23T04:17:18.538Z,3.47
2022-09-23T04:18:18.530Z,3.53
2022-09-23T04:19:18.514Z,3.55
2022-09-23T04:20:18.504Z,3.58
2022-09-23T04:21:18.490Z,3.60
2022-09-23T04:22:18.474Z,3.60
2022-09-23T04:23:18.462Z,3.63
2022-09-23T04:24:18.450Z,3.66
2022-09-23T04:25:18.443Z,3.69
2022-09-23T04:26:18.424Z,3.74
2022-09-23T04:27:18.412Z,3.73
2022-09-23T04:28:18.401Z,3.70
2022-09-23T04:29:18.386Z,3.73
2022-09-23T04:30:18.397Z,3.70
2022-09-23T04:31:18.456Z,3.69
2022-09-23T04:32:18.350Z,3.66
2022-09-23T04:33:18.342Z,3.69
2022-09-23T04:34:18.317Z,3.68
2022-09-23T04:35:18.312Z,3.63
2022-09-23T04:36:18.297Z,3.60
2022-09-23T04:37:18.281Z,3.56
2022-09-23T04:38:18.275Z,3.53
2022-09-23T04:39:18.259Z,3.50
2022-09-23T04:40:18.293Z,3.50
2022-09-23T04:41:18.229Z,3.45
2022-09-23T04:42:18.217Z,3.41
2022-09-23T04:43:18.204Z,3.37
2022-09-23T04:44:18.192Z,3.41
2022-09-23T04:45:18.178Z,3.45
2022-09-23T04:46:18.251Z,3.48
2022-09-23T04:47:18.156Z,3.48
2022-09-23T04:48:18.162Z,3.50
2022-09-23T04:49:18.129Z,3.45
2022-09-23T04:50:18.115Z,3.45
2022-09-23T04:51:18.099Z,3.45
2022-09-23T04:52:18.089Z,3.45
2022-09-23T04:53:18.075Z,3.42
2022-09-23T04:54:18.071Z,3.36
2022-09-23T04:55:18.049Z,3.34
2022-09-23T04:56:18.042Z,3.31
2022-09-23T04:57:18.023Z,3.32
2022-09-23T04:58:18.010Z,3.32
2022-09-23T04:59:18.002Z,3.29
2022-09-23T05:00:17.987Z,3.26
2022-09-23T05:01:18.129Z,3.25
2022-09-23T05:02:18.040Z,3.21
2022-09-23T05:03:17.943Z,3.19
2022-09-23T05:04:17.932Z,3.16
2022-09-23T05:05:17.924Z,3.19
2022-09-23T05:06:17.906Z,3.25
2022-09-23T05:07:17.896Z,3.31
2022-09-23T05:08:17.881Z,3.37
2022-09-23T05:09:17.869Z,3.42
2022-09-23T05:10:17.855Z,3.44
2022-09-23T05:11:17.852Z,3.42
2022-09-23T05:12:17.829Z,3.42
2022-09-23T05:13:23.821Z,3.42
2022-09-23T05:14:17.800Z,3.45
2022-09-23T05:15:17.791Z,3.48
2022-09-23T05:16:17.847Z,3.48
2022-09-23T05:17:17.769Z,3.45
2022-09-23T05:18:20.730Z,3.41
2022-09-23T05:19:17.736Z,3.44
2022-09-23T05:20:17.823Z,3.47
2022-09-23T05:21:17.708Z,3.50
2022-09-23T05:22:17.698Z,3.48
2022-09-23T05:23:17.685Z,3.50
2022-09-23T05:24:17.673Z,3.50
2022-09-23T05:25:17.661Z,3.48
2022-09-23T05:26:17.853Z,3.48
2022-09-23T05:27:17.829Z,3.48
2022-09-23T05:28:17.622Z,3.47
2022-09-23T05:29:17.813Z,3.48
2022-09-23T05:30:17.598Z,3.51
2022-09-23T05:31:20.645Z,3.53
2022-09-23T05:32:17.764Z,3.55
2022-09-23T05:33:17.748Z,3.55
2022-09-23T05:34:17.604Z,3.56
2022-09-23T05:35:17.527Z,3.55
2022-09-23T05:36:17.515Z,3.53
2022-09-23T05:37:17.501Z,3.51
2022-09-23T05:38:17.489Z,3.51
2022-09-23T05:39:17.676Z,3.50
2022-09-23T05:40:17.541Z,3.50
2022-09-23T05:41:17.459Z,3.55
2022-09-23T05:42:17.433Z,3.59
2022-09-23T05:43:17.621Z,3.63
2022-09-23T05:44:17.408Z,3.69
2022-09-23T05:45:17.410Z,3.76
2022-09-23T05:46:17.439Z,3.80
2022-09-23T05:47:17.372Z,3.84
2022-09-23T05:48:17.359Z,3.87
2022-09-23T05:49:17.344Z,3.92
2022-09-23T05:50:17.361Z,3.98
2022-09-23T05:51:17.338Z,4.01
2022-09-23T05:52:17.312Z,4.05
2022-09-23T05:53:17.501Z,4.05
2022-09-23T05:54:17.284Z,4.05
2022-09-23T05:55:17.269Z,4.02
2022-09-23T05:56:17.460Z,4.04
2022-09-23T05:57:17.437Z,4.05
2022-09-23T05:58:17.240Z,4.01
2022-09-23T05:59:17.229Z,4.04
2022-09-23T06:00:17.202Z,4.04
2022-09-23T06:01:17.194Z,4.05
2022-09-23T06:02:17.201Z,4.06
2022-09-23T06:03:17.247Z,4.12
2022-09-23T06:04:17.155Z,4.13
2022-09-23T06:05:17.139Z,4.17
2022-09-23T06:06:17.151Z,4.20
2022-09-23T06:07:17.120Z,4.24
2022-09-23T06:08:17.103Z,4.31
2022-09-23T06:09:17.096Z,4.35
2022-09-23T06:10:17.083Z,4.37
2022-09-23T06:11:17.067Z,4.41
2022-09-23T06:12:17.045Z,4.45
2022-09-23T06:13:17.036Z,4.53
2022-09-23T06:14:17.025Z,4.62
2022-09-23T06:15:17.006Z,4.71
2022-09-23T06:16:17.044Z,4.82
2022-09-23T06:17:16.989Z,4.97
2022-09-23T06:18:16.969Z,5.12
2022-09-23T06:19:17.167Z,5.33
2022-09-23T06:20:16.950Z,5.59
2022-09-23T06:21:16.932Z,5.87
2022-09-23T06:22:17.116Z,6.24
2022-09-23T06:23:16.909Z,6.74
2022-09-23T06:24:20.797Z,7.42
2022-09-23T06:25:16.883Z,8.19
2022-09-23T06:26:16.873Z,8.97
2022-09-23T06:27:16.854Z,9.77
2022-09-23T06:28:16.844Z,10.51
2022-09-23T06:29:16.827Z,11.23
2022-09-23T06:30:16.822Z,11.91
2022-09-23T06:31:16.909Z,12.57
2022-09-23T06:32:16.791Z,13.19
2022-09-23T06:33:21.140Z,13.86
2022-09-23T06:34:18.128Z,14.43
2022-09-23T06:35:26.429Z,14.92
2022-09-23T06:36:35.828Z,15.36
2022-09-23T06:37:20.469Z,15.70
2022-09-23T06:38:16.751Z,15.84
2022-09-23T06:39:16.775Z,15.98
2022-09-23T06:40:16.764Z,15.82
2022-09-23T06:41:16.664Z,15.31
2022-09-23T06:42:16.698Z,14.86
2022-09-23T06:43:16.647Z,14.99
2022-09-23T06:44:16.629Z,15.31
2022-09-23T06:45:16.616Z,15.59
2022-09-23T06:46:16.720Z,15.64
2022-09-23T06:47:16.593Z,15.55
2022-09-23T06:48:16.578Z,15.61
2022-09-23T06:49:22.569Z,15.65
2022-09-23T06:50:16.555Z,15.83
2022-09-23T06:51:16.546Z,15.84
2022-09-23T06:52:16.520Z,15.73
2022-09-23T06:53:16.508Z,15.64
2022-09-23T06:54:16.517Z,15.57
2022-09-23T06:55:16.484Z,15.73
2022-09-23T06:56:16.471Z,15.86
2022-09-23T06:57:16.461Z,15.92
2022-09-23T06:58:16.445Z,15.73
2022-09-23T06:59:16.641Z,15.17
2022-09-23T07:00:16.424Z,14.58
2022-09-23T07:01:16.556Z,13.81
2022-09-23T07:02:16.518Z,13.11
2022-09-23T07:03:16.385Z,12.46
2022-09-23T07:04:16.374Z,12.07
2022-09-23T07:05:16.363Z,11.72
2022-09-23T07:06:16.350Z,11.36
2022-09-23T07:07:16.344Z,11.07
2022-09-23T07:08:16.318Z,10.71
2022-09-23T07:09:16.304Z,10.30
2022-09-23T07:10:16.319Z,10.02
2022-09-23T07:11:16.284Z,9.73
2022-09-23T07:12:16.269Z,9.68
2022-09-23T07:13:16.510Z,9.55
2022-09-23T07:14:16.252Z,9.46
2022-09-23T07:15:16.420Z,9.32
2022-09-23T07:16:16.319Z,9.29
2022-09-23T07:17:16.210Z,9.36
2022-09-23T07:18:16.188Z,9.32
2022-09-23T07:19:16.171Z,9.26
2022-09-23T07:20:16.168Z,9.29
2022-09-23T07:21:16.343Z,9.32
2022-09-23T07:22:16.142Z,9.29
2022-09-23T07:23:16.119Z,9.26
2022-09-23T07:24:16.110Z,9.31
2022-09-23T07:25:16.093Z,9.19
2022-09-23T07:26:16.127Z,9.08
2022-09-23T07:27:16.080Z,9.08
2022-09-23T07:28:16.068Z,9.13
2022-09-23T07:29:16.045Z,9.14
2022-09-23T07:30:23.892Z,9.19
2022-09-23T07:31:24.446Z,9.23
2022-09-23T07:32:17.052Z,9.26
2022-09-23T07:33:29.160Z,9.23
2022-09-23T07:34:17.037Z,9.23
2022-09-23T07:35:15.968Z,9.29
2022-09-23T07:36:15.955Z,9.37
2022-09-23T07:37:15.940Z,9.41
2022-09-23T07:38:15.941Z,9.46
2022-09-23T07:39:15.938Z,9.48
2022-09-23T07:40:15.953Z,9.50
2022-09-23T07:41:15.896Z,9.56
2022-09-23T07:42:15.905Z,9.59
2022-09-23T07:43:15.864Z,9.62
2022-09-23T07:44:15.854Z,9.65
2022-09-23T07:45:15.841Z,9.72
2022-09-23T07:46:15.859Z,9.68
2022-09-23T07:47:15.814Z,9.72
2022-09-23T07:48:15.803Z,9.76
2022-09-23T07:49:15.787Z,9.74
2022-09-23T07:50:15.771Z,9.77
2022-09-23T07:51:15.756Z,9.80
2022-09-23T07:52:15.738Z,9.83
2022-09-23T07:53:15.737Z,9.86
2022-09-23T07:54:15.718Z,9.86
2022-09-23T07:55:20.738Z,9.84
2022-09-23T07:56:15.694Z,9.87
2022-09-23T07:57:15.682Z,9.87
2022-09-23T07:58:15.913Z,9.89
2022-09-23T07:59:15.852Z,9.95
2022-09-23T08:00:15.836Z,9.98
2022-09-23T08:01:15.669Z,10.02
2022-09-23T08:02:15.679Z,10.07
2022-09-23T08:03:15.643Z,10.10
2022-09-23T08:04:15.600Z,10.12
2022-09-23T08:05:15.578Z,10.17
2022-09-23T08:06:15.566Z,10.20
2022-09-23T08:07:15.551Z,10.23
2022-09-23T08:08:15.549Z,10.25
2022-09-23T08:09:15.522Z,10.26
2022-09-23T08:10:15.710Z,10.30
2022-09-23T08:11:15.502Z,10.30
2022-09-23T08:12:16.280Z,10.31
2022-09-23T08:13:15.477Z,10.33
2022-09-23T08:14:15.483Z,10.38
2022-09-23T08:15:15.456Z,10.42
2022-09-23T08:16:15.473Z,10.48
2022-09-23T08:17:15.419Z,10.51
2022-09-23T08:18:15.408Z,10.51
2022-09-23T08:19:15.402Z,10.54
2022-09-23T08:20:15.386Z,10.60
2022-09-23T08:21:15.368Z,10.63
2022-09-23T08:22:15.358Z,10.63
2022-09-23T08:23:15.345Z,10.64
2022-09-23T08:24:15.323Z,10.71
2022-09-23T08:25:15.320Z,10.74
2022-09-23T08:26:21.218Z,10.71
2022-09-23T08:27:17.297Z,10.71
2022-09-23T08:28:15.280Z,10.75
2022-09-23T08:29:15.266Z,10.81
2022-09-23T08:30:15.277Z,10.86
2022-09-23T08:31:15.359Z,10.90
2022-09-23T08:32:15.228Z,10.93
2022-09-23T08:33:17.478Z,10.94
2022-09-23T08:34:15.204Z,11.00
2022-09-23T08:35:15.185Z,11.05
2022-09-23T08:36:15.179Z,11.08
2022-09-23T08:37:15.163Z,11.12
2022-09-23T08:38:15.147Z,11.15
2022-09-23T08:39:15.139Z,11.22
2022-09-23T08:40:15.358Z,11.26
2022-09-23T08:41:15.112Z,11.30
2022-09-23T08:42:15.296Z,11.29
2022-09-23T08:43:15.084Z,11.30
2022-09-23T08:44:15.067Z,11.33
2022-09-23T08:45:15.061Z,11.36
2022-09-23T08:46:15.105Z,11.40
2022-09-23T08:47:15.257Z,11.40
2022-09-23T08:48:15.022Z,11.44
2022-09-23T08:49:15.015Z,11.50
2022-09-23T08:50:14.996Z,11.52
2022-09-23T08:51:14.975Z,11.57
2022-09-23T08:52:14.967Z,11.63
2022-09-23T08:53:14.957Z,11.70
2022-09-23T08:54:14.941Z,11.78
2022-09-23T08:55:14.941Z,11.86
2022-09-23T08:56:14.914Z,11.90
2022-09-23T08:57:14.891Z,11.97
2022-09-23T08:58:24.902Z,12.06
2022-09-23T08:59:15.917Z,12.15
2022-09-23T09:00:14.864Z,12.21
2022-09-23T09:01:14.985Z,12.28
2022-09-23T09:02:14.938Z,12.36
2022-09-23T09:03:14.829Z,12.43
2022-09-23T09:04:14.812Z,12.54
2022-09-23T09:05:14.803Z,12.57
2022-09-23T09:06:14.785Z,12.58
2022-09-23T09:08:15.789Z,12.62
2022-09-23T09:09:14.746Z,12.70
2022-09-23T09:10:14.731Z,12.76
2022-09-23T09:11:14.720Z,12.76
2022-09-23T09:12:14.724Z,12.80
2022-09-23T09:13:14.699Z,12.87
2022-09-23T09:14:14.685Z,12.95
2022-09-23T09:15:14.671Z,13.01
2022-09-23T09:16:14.728Z,13.05
2022-09-23T09:17:14.643Z,13.09
2022-09-23T09:18:14.651Z,13.15
2022-09-23T09:19:14.623Z,13.19
2022-09-23T09:20:14.801Z,13.22
2022-09-23T09:21:14.591Z,13.22
2022-09-23T09:22:14.576Z,13.27
2022-09-23T09:23:14.563Z,13.35
2022-09-23T09:24:14.555Z,13.39
2022-09-23T09:25:14.594Z,13.47
2022-09-23T09:26:14.525Z,13.54
2022-09-23T09:27:14.517Z,13.56
2022-09-23T09:28:14.496Z,13.63
2022-09-23T09:29:34.381Z,13.72
2022-09-23T09:30:16.468Z,13.81
2022-09-23T09:31:14.498Z,13.90
2022-09-23T09:32:14.450Z,13.96
2022-09-23T09:33:20.470Z,13.93
2022-09-23T09:34:14.416Z,13.96
2022-09-23T09:35:14.403Z,14.00
2022-09-23T09:36:14.404Z,14.04
2022-09-23T09:37:14.377Z,14.00
2022-09-23T09:38:14.365Z,13.99
2022-09-23T09:39:14.351Z,14.07
2022-09-23T09:40:14.395Z,14.12
2022-09-23T09:41:14.322Z,14.14
2022-09-23T09:42:14.320Z,14.23
2022-09-23T09:43:14.300Z,14.33
2022-09-23T09:44:14.289Z,14.36
2022-09-23T09:45:14.282Z,14.40
2022-09-23T09:46:14.317Z,14.40
2022-09-23T09:47:14.243Z,14.48
2022-09-23T09:48:14.230Z,14.58
2022-09-23T09:49:14.247Z,14.66
2022-09-23T09:50:14.209Z,14.65
2022-09-23T09:51:14.193Z,14.68
2022-09-23T09:52:14.184Z,14.65
2022-09-23T09:53:14.120Z,14.63
2022-09-23T09:54:14.105Z,14.66
2022-09-23T09:55:14.084Z,14.78
2022-09-23T09:56:14.070Z,14.82
2022-09-23T09:57:14.063Z,14.82
2022-09-23T09:58:14.061Z,14.86
2022-09-23T09:59:14.039Z,14.89
2022-09-23T10:00:14.023Z,14.91
2022-09-23T10:01:14.061Z,14.92
2022-09-23T10:02:14.011Z,14.94
2022-09-23T10:03:13.982Z,14.94
2022-09-23T10:04:14.080Z,14.91
2022-09-23T10:05:13.980Z,14.88
2022-09-23T10:06:13.941Z,14.86
2022-09-23T10:07:13.928Z,14.84
2022-09-23T10:08:13.910Z,14.84
2022-09-23T10:09:13.924Z,14.85
2022-09-23T10:10:22.453Z,14.84
2022-09-23T10:11:14.894Z,14.88
2022-09-23T10:12:13.859Z,14.86
2022-09-23T10:13:13.853Z,14.88
2022-09-23T10:14:13.833Z,14.91
2022-09-23T10:15:13.819Z,14.96
2022-09-23T10:16:13.854Z,14.99
2022-09-23T10:17:13.797Z,15.03
2022-09-23T10:18:13.781Z,15.02
2022-09-23T10:19:13.778Z,15.03
2022-09-23T10:20:13.752Z,15.06
2022-09-23T10:21:13.762Z,15.10
2022-09-23T10:22:13.729Z,15.15
2022-09-23T10:23:13.914Z,15.17
2022-09-23T10:24:13.705Z,15.17
2022-09-23T10:25:13.691Z,15.17
2022-09-23T10:26:13.680Z,15.15
2022-09-23T10:27:13.667Z,15.17
2022-09-23T10:28:13.852Z,15.18
2022-09-23T10:29:13.628Z,15.21
2022-09-23T10:30:13.621Z,15.29
2022-09-23T10:31:13.706Z,15.35
2022-09-23T10:32:13.596Z,15.36
2022-09-23T10:33:13.589Z,15.36
2022-09-23T10:34:13.579Z,15.35
2022-09-23T10:35:13.558Z,15.35
2022-09-23T10:36:13.558Z,15.27
2022-09-23T10:37:13.560Z,15.28
2022-09-23T10:38:13.520Z,15.27
2022-09-23T10:39:13.514Z,15.29
2022-09-23T10:40:13.568Z,15.35
2022-09-23T10:41:13.491Z,15.44
2022-09-23T10:42:13.477Z,15.52
2022-09-23T10:43:13.463Z,15.59
2022-09-23T10:44:13.447Z,15.67
2022-09-23T10:45:13.437Z,15.72
2022-09-23T10:46:13.450Z,15.72
2022-09-23T10:47:13.410Z,15.75
2022-09-23T10:48:13.402Z,15.75
2022-09-23T10:49:13.384Z,15.73
2022-09-23T10:50:13.377Z,15.79
2022-09-23T10:51:13.362Z,15.82
2022-09-23T10:52:13.386Z,15.82
2022-09-23T10:53:13.438Z,15.80
2022-09-23T10:54:13.323Z,15.80
2022-09-23T10:55:13.314Z,15.83
2022-09-23T10:56:13.297Z,15.83
2022-09-23T10:57:13.295Z,15.86
2022-09-23T10:58:13.270Z,15.88
2022-09-23T10:59:13.267Z,15.86
2022-09-23T11:00:13.250Z,15.90
2022-09-23T11:01:13.324Z,15.91
2022-09-23T11:02:13.222Z,15.86
2022-09-23T11:03:13.214Z,15.90
2022-09-23T11:04:13.288Z,15.92
2022-09-23T11:05:13.189Z,15.90
2022-09-23T11:06:13.174Z,15.86
2022-09-23T11:07:13.160Z,15.90
2022-09-23T11:08:13.149Z,15.84
2022-09-23T11:09:13.159Z,15.90
2022-09-23T11:10:29.082Z,15.97
2022-09-23T11:11:14.142Z,16.02
2022-09-23T11:12:13.103Z,16.08
2022-09-23T11:13:13.085Z,16.08
2022-09-23T11:14:13.070Z,16.01
2022-09-23T11:15:13.058Z,15.95
2022-09-23T11:16:13.139Z,16.00
2022-09-23T11:17:13.063Z,16.08
2022-09-23T11:18:13.020Z,16.02
2022-09-23T11:19:13.014Z,16.02
2022-09-23T11:20:13.080Z,15.97
2022-09-23T11:21:12.991Z,15.98
2022-09-23T11:22:12.977Z,16.00
2022-09-23T11:23:13.164Z,16.08
2022-09-23T11:24:12.952Z,16.10
2022-09-23T11:25:12.964Z,16.20
2022-09-23T11:26:12.920Z,16.23
2022-09-23T11:27:12.913Z,16.21
2022-09-23T11:28:12.900Z,16.20
2022-09-23T11:29:13.161Z,16.16
2022-09-23T11:30:12.945Z,16.15
2022-09-23T11:31:12.897Z,16.17
2022-09-23T11:32:12.852Z,16.23
2022-09-23T11:33:12.842Z,16.24
2022-09-23T11:34:12.821Z,16.31
2022-09-23T11:35:12.805Z,16.33
2022-09-23T11:36:12.793Z,16.36
2022-09-23T11:37:12.792Z,16.36
2022-09-23T11:38:12.779Z,16.38
2022-09-23T11:39:12.768Z,16.35
2022-09-23T11:40:12.856Z,16.35
2022-09-23T11:41:12.758Z,16.41
2022-09-23T11:42:12.717Z,16.43
2022-09-23T11:43:12.719Z,16.39
2022-09-23T11:44:12.701Z,16.39
2022-09-23T11:45:12.682Z,16.41
2022-09-23T11:46:12.731Z,16.49
2022-09-23T11:47:12.669Z,16.47
2022-09-23T11:48:12.638Z,16.47
2022-09-23T11:49:12.631Z,16.41
2022-09-23T11:50:12.669Z,16.39
2022-09-23T11:51:18.795Z,16.39
2022-09-23T11:52:12.591Z,16.38
2022-09-23T11:53:12.579Z,16.46
2022-09-23T11:54:12.854Z,16.53
2022-09-23T11:55:20.791Z,16.53
2022-09-23T11:56:15.306Z,16.53
2022-09-23T11:57:12.629Z,16.54
2022-09-23T11:58:22.490Z,16.56
2022-09-23T11:59:13.889Z,16.61
2022-09-23T12:00:12.611Z,16.65
2022-09-23T12:01:12.467Z,16.65
2022-09-23T12:02:20.024Z,16.65
2022-09-23T12:03:13.620Z,16.69
2022-09-23T12:04:19.887Z,16.72
2022-09-23T12:05:13.653Z,16.72
2022-09-23T12:06:12.414Z,16.79
2022-09-23T12:07:12.398Z,16.84
2022-09-23T12:08:12.390Z,16.87
2022-09-23T12:09:12.373Z,16.93
2022-09-23T12:10:12.499Z,16.97
2022-09-23T12:11:12.338Z,16.99
2022-09-23T12:12:12.334Z,17.01
2022-09-23T12:13:12.336Z,16.96
2022-09-23T12:14:12.300Z,16.91
2022-09-23T12:15:12.284Z,16.94
2022-09-23T12:16:12.327Z,16.96
2022-09-23T12:17:12.260Z,16.94
2022-09-23T12:18:12.255Z,16.96
2022-09-23T12:19:12.245Z,16.97
2022-09-23T12:20:12.345Z,16.97
2022-09-23T12:21:22.407Z,16.97
2022-09-23T12:22:13.237Z,16.96
2022-09-23T12:23:12.184Z,16.99
2022-09-23T12:24:14.911Z,17.04
2022-09-23T12:25:13.187Z,17.01
2022-09-23T12:26:12.144Z,17.05
2022-09-23T12:27:12.137Z,17.08
2022-09-23T12:28:12.119Z,17.15
2022-09-23T12:29:12.129Z,17.15
2022-09-23T12:30:12.162Z,17.15
2022-09-23T12:31:12.121Z,17.15
2022-09-23T12:32:12.065Z,17.22
2022-09-23T12:33:12.048Z,17.19
2022-09-23T12:34:12.036Z,17.22
2022-09-23T12:35:12.023Z,17.23
2022-09-23T12:36:12.017Z,17.20
2022-09-23T12:37:12.002Z,17.22
2022-09-23T12:38:12.181Z,17.23
2022-09-23T12:39:11.973Z,17.19
2022-09-23T12:40:12.085Z,17.29
2022-09-23T12:41:11.945Z,17.33
2022-09-23T12:42:11.933Z,17.34
2022-09-23T12:43:11.921Z,17.42
2022-09-23T12:44:11.908Z,17.41
2022-09-23T12:45:11.960Z,17.41
2022-09-23T12:46:12.033Z,17.45
2022-09-23T12:47:11.868Z,17.48
2022-09-23T12:48:11.897Z,17.56
2022-09-23T12:49:11.843Z,17.59
2022-09-23T12:50:16.630Z,17.56
2022-09-23T12:51:12.260Z,17.52
2022-09-23T12:52:11.802Z,17.49
2022-09-23T12:53:11.786Z,17.56
2022-09-23T12:54:11.780Z,17.60
2022-09-23T12:55:11.762Z,17.71
2022-09-23T12:56:11.752Z,17.72
2022-09-23T12:57:11.738Z,17.83
2022-09-23T12:58:11.728Z,17.82
2022-09-23T12:59:11.711Z,17.82
2022-09-23T13:00:11.698Z,17.82
2022-09-23T13:01:11.832Z,17.79
2022-09-23T13:02:11.738Z,17.76
2022-09-23T13:03:11.659Z,17.80
2022-09-23T13:04:11.651Z,17.87
2022-09-23T13:05:11.631Z,17.90
2022-09-23T13:06:11.618Z,17.87
2022-09-23T13:07:11.603Z,17.92